createdAt,value
2023-01-23T00:00:12.705Z,101260.47
2023-01-23T00:03:35.589Z,101267.72
2023-01-23T00:06:40.872Z,101254.81
2023-01-23T00:09:43.500Z,101242.53
2023-01-23T00:12:49.059Z,101246.06
2023-01-23T00:15:52.016Z,101237.50
2023-01-23T00:18:56.573Z,101237.81
2023-01-23T00:22:00.923Z,101231.09
2023-01-23T00:25:05.771Z,101229.50
2023-01-23T00:28:08.407Z,101234.03
2023-01-23T00:31:17.803Z,101229.31
2023-01-23T00:34:20.490Z,101228.25
2023-01-23T00:37:24.648Z,101239.06
2023-01-23T00:40:27.203Z,101247.37
2023-01-23T00:43:30.870Z,101249.16
2023-01-23T00:46:34.974Z,101237.94
2023-01-23T00:49:38.303Z,101242.66
2023-01-23T00:52:40.897Z,101233.31
2023-01-23T00:55:44.414Z,101245.25
2023-01-23T00:58:47.031Z,101249.88
2023-01-23T01:01:50.950Z,101252.00
2023-01-23T01:04:53.626Z,101241.78
2023-01-23T01:07:58.272Z,101243.47
2023-01-23T01:11:01.139Z,101243.00
2023-01-23T01:14:04.259Z,101241.00
2023-01-23T01:17:07.116Z,101245.25
2023-01-23T01:20:10.711Z,101241.31
2023-01-23T01:23:13.831Z,101243.00
2023-01-23T01:26:17.139Z,101224.03
2023-01-23T01:29:19.802Z,101223.44
2023-01-23T01:32:23.245Z,101221.00
2023-01-23T01:35:25.857Z,101221.88
2023-01-23T01:38:30.049Z,101213.69
2023-01-23T01:41:33.817Z,101220.28
2023-01-23T01:44:58.624Z,101218.38
2023-01-23T01:48:01.439Z,101207.94
2023-01-23T01:51:20.129Z,101213.81
2023-01-23T01:54:32.379Z,101226.94
2023-01-23T01:57:38.322Z,101218.19
2023-01-23T02:00:41.279Z,101223.25
2023-01-23T02:03:45.767Z,101226.63
2023-01-23T02:06:51.781Z,101226.28
2023-01-23T02:09:55.831Z,101226.06
2023-01-23T02:13:19.144Z,101223.81
2023-01-23T02:16:28.150Z,101217.28
2023-01-23T02:19:48.863Z,101215.16
2023-01-23T02:22:58.085Z,101214.94
2023-01-23T02:26:03.663Z,101202.13
2023-01-23T02:29:08.124Z,101204.84
2023-01-23T02:32:13.473Z,101207.50
2023-01-23T02:35:28.108Z,101209.09
2023-01-23T02:38:36.883Z,101208.78
2023-01-23T02:41:46.788Z,101204.25
2023-01-23T02:44:50.087Z,101204.16
2023-01-23T02:47:53.649Z,101205.25
2023-01-23T02:50:56.617Z,101191.47
2023-01-23T02:53:59.818Z,101199.97
2023-01-23T02:57:03.159Z,101191.69
2023-01-23T03:00:16.109Z,101189.22
2023-01-23T03:03:19.201Z,101176.19
2023-01-23T03:06:22.674Z,101175.19
2023-01-23T03:09:25.760Z,101167.31
2023-01-23T03:12:28.753Z,101174.16
2023-01-23T03:15:31.633Z,101170.00
2023-01-23T03:18:48.907Z,101160.91
2023-01-23T03:21:56.368Z,101163.69
2023-01-23T03:24:59.541Z,101164.62
2023-01-23T03:28:02.217Z,101166.31
2023-01-23T03:31:07.806Z,101175.63
2023-01-23T03:34:10.639Z,101171.91
2023-01-23T03:37:15.287Z,101172.81
2023-01-23T03:40:40.851Z,101161.34
2023-01-23T03:43:44.600Z,101161.22
2023-01-23T03:46:48.711Z,101156.06
2023-01-23T03:49:52.557Z,101158.34
2023-01-23T03:52:55.313Z,101146.19
2023-01-23T03:55:58.465Z,101151.47
2023-01-23T03:59:01.562Z,101156.75
2023-01-23T04:02:07.752Z,101156.06
2023-01-23T04:05:10.657Z,101152.59
2023-01-23T04:08:13.900Z,101158.56
2023-01-23T04:11:16.805Z,101158.44
2023-01-23T04:14:19.813Z,101149.09
2023-01-23T04:17:22.748Z,101160.34
2023-01-23T04:20:25.612Z,101164.62
2023-01-23T04:23:28.725Z,101149.78
2023-01-23T04:26:32.004Z,101157.41
2023-01-23T04:29:35.065Z,101161.22
2023-01-23T04:32:38.668Z,101156.06
2023-01-23T04:35:50.004Z,101166.63
2023-01-23T04:38:53.136Z,101164.97
2023-01-23T04:41:56.204Z,101162.16
2023-01-23T04:45:00.370Z,101157.75
2023-01-23T04:48:05.152Z,101165.37
2023-01-23T04:51:09.113Z,101162.03
2023-01-23T04:54:12.389Z,101170.78
2023-01-23T04:57:15.308Z,101169.91
2023-01-23T05:00:19.080Z,101159.44
2023-01-23T05:03:22.516Z,101175.72
2023-01-23T05:06:26.520Z,101179.13
2023-01-23T05:09:33.704Z,101180.13
2023-01-23T05:12:36.602Z,101187.75
2023-01-23T05:15:40.106Z,101190.22
2023-01-23T05:18:42.846Z,101185.72
2023-01-23T05:21:45.880Z,101195.97
2023-01-23T05:24:49.266Z,101193.41
2023-01-23T05:27:52.474Z,101195.16
2023-01-23T05:30:55.619Z,101192.81
2023-01-23T05:33:58.744Z,101187.75
2023-01-23T05:37:01.689Z,101193.06
2023-01-23T05:40:11.278Z,101189.78
2023-01-23T05:43:17.833Z,101196.09
2023-01-23T05:46:22.188Z,101178.88
2023-01-23T05:49:25.738Z,101186.88
2023-01-23T05:52:28.647Z,101189.09
2023-01-23T05:55:31.938Z,101195.03
2023-01-23T05:58:35.446Z,101201.66
2023-01-23T06:01:41.832Z,101200.91
2023-01-23T06:04:48.971Z,101208.06
2023-01-23T06:07:52.015Z,101210.22
2023-01-23T06:10:58.594Z,101219.66
2023-01-23T06:14:01.428Z,101223.69
2023-01-23T06:17:05.595Z,101228.44
2023-01-23T06:20:09.240Z,101233.25
2023-01-23T06:23:13.485Z,101241.91
2023-01-23T06:26:16.906Z,101245.53
2023-01-23T06:29:20.145Z,101242.25
2023-01-23T06:32:23.617Z,101261.38
2023-01-23T06:35:27.338Z,101265.00
2023-01-23T06:38:31.471Z,101266.00
2023-01-23T06:41:35.404Z,101267.00
2023-01-23T06:44:38.403Z,101266.22
2023-01-23T06:47:41.741Z,101270.03
2023-01-23T06:50:44.976Z,101263.16
2023-01-23T06:53:48.917Z,101263.72
2023-01-23T06:56:51.790Z,101270.78
2023-01-23T06:59:55.156Z,101265.72
2023-01-23T07:02:59.229Z,101263.56
2023-01-23T07:06:06.770Z,101266.84
2023-01-23T07:09:09.609Z,101264.47
2023-01-23T07:12:13.899Z,101276.84
2023-01-23T07:15:17.052Z,101280.28
2023-01-23T07:18:20.797Z,101287.81
2023-01-23T07:21:23.928Z,101288.78
2023-01-23T07:24:30.010Z,101292.09
2023-01-23T07:27:33.182Z,101302.53
2023-01-23T07:30:36.346Z,101305.03
2023-01-23T07:33:38.913Z,101303.81
2023-01-23T07:36:42.047Z,101298.53
2023-01-23T07:39:45.531Z,101312.72
2023-01-23T07:42:49.055Z,101307.66
2023-01-23T07:45:51.778Z,101313.66
2023-01-23T07:48:56.305Z,101304.66
2023-01-23T07:51:58.904Z,101300.25
2023-01-23T07:55:02.229Z,101306.12
2023-01-23T07:58:04.885Z,101309.13
2023-01-23T08:01:10.188Z,101309.69
2023-01-23T08:04:13.090Z,101306.12
2023-01-23T08:07:16.059Z,101312.69
2023-01-23T08:10:19.316Z,101306.62
2023-01-23T08:13:23.679Z,101311.28
2023-01-23T08:16:26.413Z,101306.69
2023-01-23T08:19:29.315Z,101307.69
2023-01-23T08:22:33.402Z,101300.91
2023-01-23T08:25:38.125Z,101298.13
2023-01-23T08:28:42.580Z,101301.31
2023-01-23T08:31:45.511Z,101304.87
2023-01-23T08:34:48.979Z,101298.88
2023-01-23T08:37:52.036Z,101307.81
2023-01-23T08:40:58.337Z,101310.84
2023-01-23T08:44:01.882Z,101307.78
2023-01-23T08:47:04.889Z,101313.59
2023-01-23T08:50:08.503Z,101316.13
2023-01-23T08:53:12.568Z,101312.56
2023-01-23T08:56:18.056Z,101309.22
2023-01-23T08:59:20.942Z,101309.09
2023-01-23T09:02:23.940Z,101308.41
2023-01-23T09:05:27.185Z,101314.78
2023-01-23T09:08:30.339Z,101311.63
2023-01-23T09:11:35.820Z,101305.81
2023-01-23T09:14:38.579Z,101317.56
2023-01-23T09:17:41.574Z,101316.06
2023-01-23T09:20:44.317Z,101321.97
2023-01-23T09:23:47.100Z,101313.78
2023-01-23T09:26:49.945Z,101325.28
2023-01-23T09:29:52.872Z,101316.25
2023-01-23T09:32:56.252Z,101308.16
2023-01-23T09:35:59.317Z,101302.34
2023-01-23T09:39:03.596Z,101304.59
2023-01-23T09:42:11.098Z,101309.81
2023-01-23T09:45:21.324Z,101298.66
2023-01-23T09:48:42.314Z,101296.75
2023-01-23T09:51:51.335Z,101303.72
2023-01-23T09:55:03.742Z,101307.03
2023-01-23T09:58:16.817Z,101296.34
2023-01-23T10:01:19.847Z,101290.63
2023-01-23T10:04:23.624Z,101285.16
2023-01-23T10:07:40.181Z,101291.44
2023-01-23T10:10:52.413Z,101285.25
2023-01-23T10:14:02.510Z,101285.47
2023-01-23T10:17:15.111Z,101279.16
2023-01-23T10:20:33.578Z,101274.75
2023-01-23T10:23:48.338Z,101282.00
2023-01-23T10:26:52.271Z,101278.81
2023-01-23T10:30:14.377Z,101272.13
2023-01-23T10:33:18.303Z,101275.31
2023-01-23T10:36:47.493Z,101271.97
2023-01-23T10:40:38.760Z,101267.03
2023-01-23T10:43:43.212Z,101260.94
2023-01-23T10:46:52.228Z,101257.44
2023-01-23T10:49:56.480Z,101259.50
2023-01-23T10:53:08.296Z,101250.50
2023-01-23T10:56:16.928Z,101248.25
2023-01-23T11:00:04.522Z,101237.72
2023-01-23T11:03:28.484Z,101242.41
2023-01-23T11:06:31.077Z,101235.12
2023-01-23T11:09:46.316Z,101242.56
2023-01-23T11:12:51.803Z,101232.88
2023-01-23T11:15:55.758Z,101236.19
2023-01-23T11:19:21.745Z,101238.34
2023-01-23T11:22:32.972Z,101227.41
2023-01-23T11:25:52.856Z,101229.56
2023-01-23T11:28:56.069Z,101234.22
2023-01-23T11:32:05.424Z,101231.47
2023-01-23T11:35:25.538Z,101223.81
2023-01-23T11:38:44.902Z,101226.81
2023-01-23T11:41:54.954Z,101219.50
2023-01-23T11:45:01.389Z,101218.62
2023-01-23T11:48:27.159Z,101205.31
2023-01-23T11:52:01.933Z,101206.97
2023-01-23T11:55:27.242Z,101206.91
2023-01-23T11:59:04.149Z,101209.75
2023-01-23T12:02:26.225Z,101200.41
2023-01-23T12:05:38.024Z,101214.53
2023-01-23T12:09:05.940Z,101219.78
2023-01-23T12:12:32.749Z,101220.28
2023-01-23T12:15:44.800Z,101219.06
2023-01-23T12:19:14.958Z,101224.25
2023-01-23T12:22:28.162Z,101224.44
2023-01-23T12:25:33.744Z,101206.06
2023-01-23T12:29:00.543Z,101204.53
2023-01-23T12:32:08.058Z,101199.56
2023-01-23T12:35:30.987Z,101199.19
2023-01-23T12:38:44.013Z,101201.78
2023-01-23T12:41:52.713Z,101203.28
2023-01-23T12:45:24.949Z,101203.41
2023-01-23T12:48:57.323Z,101198.03
2023-01-23T12:52:15.485Z,101204.09
2023-01-23T12:55:26.043Z,101207.47
2023-01-23T12:58:32.339Z,101199.25
2023-01-23T13:01:59.290Z,101205.53
2023-01-23T13:05:23.955Z,101209.66
2023-01-23T13:08:40.343Z,101206.25
2023-01-23T13:11:59.054Z,101208.06
2023-01-23T13:15:14.511Z,101201.81
2023-01-23T13:18:25.189Z,101203.47
2023-01-23T13:21:46.550Z,101194.22
2023-01-23T13:25:12.557Z,101206.44
2023-01-23T13:28:44.596Z,101203.50
2023-01-23T13:31:50.587Z,101195.31
2023-01-23T13:34:53.655Z,101217.31
2023-01-23T13:37:59.379Z,101219.38
2023-01-23T13:41:04.861Z,101224.94
2023-01-23T13:44:40.188Z,101224.50
2023-01-23T14:22:38.723Z,101254.88
2023-01-23T14:25:42.705Z,101258.50
2023-01-23T14:29:25.233Z,101259.53
2023-01-23T14:32:32.178Z,101256.44
2023-01-23T14:35:35.533Z,101252.72
2023-01-23T14:38:39.389Z,101248.56
2023-01-23T14:41:43.736Z,101248.88
2023-01-23T14:44:47.947Z,101249.16
2023-01-23T14:48:04.505Z,101256.72
2023-01-23T14:51:21.477Z,101252.00
2023-01-23T14:54:26.410Z,101266.47
2023-01-23T14:57:32.559Z,101260.03
2023-01-23T15:00:36.126Z,101266.63
2023-01-23T15:03:55.195Z,101266.31
2023-01-23T15:07:01.128Z,101265.19
2023-01-23T15:10:04.370Z,101270.16
2023-01-23T15:13:11.943Z,101267.87
2023-01-23T15:16:28.462Z,101267.97
2023-01-23T15:19:33.662Z,101275.81
2023-01-23T15:22:38.307Z,101279.59
2023-01-23T15:25:41.443Z,101275.03
2023-01-23T15:28:56.137Z,101279.94
2023-01-23T15:32:00.244Z,101281.25
2023-01-23T15:35:15.138Z,101280.09
2023-01-23T15:38:18.697Z,101284.09
2023-01-23T15:41:33.716Z,101290.03
2023-01-23T15:44:37.837Z,101295.75
2023-01-23T15:47:40.699Z,101290.53
2023-01-23T15:50:43.682Z,101286.97
2023-01-23T15:53:46.668Z,101298.91
2023-01-23T15:57:00.258Z,101295.75
2023-01-23T16:00:27.211Z,101299.78
2023-01-23T16:03:30.514Z,101304.22
2023-01-23T16:06:33.407Z,101305.50
2023-01-23T16:09:39.287Z,101305.25
2023-01-23T16:12:42.186Z,101301.16
2023-01-23T16:15:45.544Z,101307.84
2023-01-23T16:18:48.346Z,101305.81
2023-01-23T16:22:03.418Z,101310.78
2023-01-23T16:25:14.210Z,101315.72
2023-01-23T16:28:20.462Z,101314.00
2023-01-23T16:31:23.456Z,101315.81
2023-01-23T16:34:27.116Z,101319.13
2023-01-23T16:37:30.062Z,101311.31
2023-01-23T16:40:34.569Z,101314.94
2023-01-23T16:43:37.835Z,101323.38
2023-01-23T16:46:41.122Z,101317.97
2023-01-23T16:49:52.142Z,101317.81
2023-01-23T16:53:03.547Z,101320.50
2023-01-23T16:56:07.100Z,101325.56
2023-01-23T16:59:39.057Z,101326.19
2023-01-23T17:02:42.691Z,101334.91
2023-01-23T17:05:46.195Z,101346.06
2023-01-23T17:08:50.202Z,101352.81
2023-01-23T17:11:56.195Z,101354.34
2023-01-23T17:14:59.251Z,101355.94
2023-01-23T17:18:03.845Z,101355.25
2023-01-23T17:21:06.573Z,101356.69
2023-01-23T17:24:15.765Z,101356.41
2023-01-23T17:27:18.494Z,101362.34
2023-01-23T17:30:25.437Z,101362.19
2023-01-23T17:33:31.694Z,101362.78
2023-01-23T17:36:35.670Z,101364.50
2023-01-23T17:39:40.180Z,101367.81
2023-01-23T17:42:43.655Z,101362.44
2023-01-23T17:45:51.403Z,101368.47
2023-01-23T17:48:56.257Z,101364.06
2023-01-23T17:52:01.034Z,101373.50
2023-01-23T17:55:05.508Z,101375.81
2023-01-23T17:58:08.110Z,101381.94
2023-01-23T18:01:24.541Z,101377.34
2023-01-23T18:04:27.921Z,101375.72
2023-01-23T18:07:32.601Z,101380.75
2023-01-23T18:10:37.553Z,101381.69
2023-01-23T18:13:50.687Z,101379.78
2023-01-23T18:16:54.554Z,101383.28
2023-01-23T18:19:58.367Z,101384.88
2023-01-23T18:23:04.231Z,101386.50
2023-01-23T18:26:22.657Z,101383.81
2023-01-23T18:29:25.676Z,101382.94
2023-01-23T18:32:36.889Z,101376.88
2023-01-23T18:35:57.125Z,101374.22
2023-01-23T18:39:24.531Z,101381.03
2023-01-23T18:43:15.846Z,101375.72
2023-01-23T18:46:22.679Z,101376.66
2023-01-23T18:49:32.669Z,101377.53
2023-01-23T18:52:38.713Z,101383.44
2023-01-23T18:55:51.587Z,101373.84
2023-01-23T18:59:12.877Z,101378.97
2023-01-23T19:02:26.500Z,101380.59
2023-01-23T19:05:33.899Z,101396.91
2023-01-23T19:08:36.885Z,101394.13
2023-01-23T19:11:39.798Z,101396.47
2023-01-23T19:15:21.050Z,101401.59
2023-01-23T19:19:07.447Z,101400.47
2023-01-23T19:22:19.004Z,101409.19
2023-01-23T19:25:22.246Z,101407.84
2023-01-23T19:28:26.006Z,101411.22
2023-01-23T19:31:31.496Z,101403.22
2023-01-23T19:34:35.099Z,101410.59
2023-01-23T19:37:40.450Z,101416.28
2023-01-23T19:40:45.275Z,101409.91
2023-01-23T19:43:58.894Z,101407.94
2023-01-23T19:47:03.584Z,101418.25
2023-01-23T19:50:06.877Z,101419.75
2023-01-23T19:53:14.134Z,101413.37
2023-01-23T19:56:20.711Z,101417.50
2023-01-23T19:59:25.147Z,101419.69
2023-01-23T20:02:28.562Z,101418.50
2023-01-23T20:05:32.901Z,101427.69
2023-01-23T20:08:35.722Z,101434.28
2023-01-23T20:11:39.559Z,101433.87
2023-01-23T20:14:42.493Z,101435.19
2023-01-23T20:17:46.433Z,101439.31
2023-01-23T20:20:49.319Z,101452.97
2023-01-23T20:23:52.730Z,101446.59
2023-01-23T20:26:55.595Z,101452.59
2023-01-23T20:29:58.934Z,101452.50
2023-01-23T20:33:07.319Z,101448.88
2023-01-23T20:36:11.576Z,101457.59
2023-01-23T20:39:14.458Z,101454.91
2023-01-23T20:42:17.669Z,101462.59
2023-01-23T20:45:20.631Z,101454.69
2023-01-23T20:48:24.030Z,101468.47
2023-01-23T20:51:27.449Z,101462.38
2023-01-23T20:54:31.630Z,101473.38
2023-01-23T20:57:53.276Z,101483.78
2023-01-23T21:00:56.925Z,101475.06
2023-01-23T21:03:59.606Z,101476.78
2023-01-23T21:07:04.446Z,101482.84
2023-01-23T21:10:07.438Z,101480.97
2023-01-23T21:13:12.266Z,101491.47
2023-01-23T21:16:16.184Z,101495.63
2023-01-23T21:19:19.573Z,101498.13
2023-01-23T21:22:22.199Z,101505.13
2023-01-23T21:25:25.520Z,101501.75
2023-01-23T21:28:30.049Z,101510.53
2023-01-23T21:31:36.251Z,101508.72
2023-01-23T21:34:41.455Z,101514.84
2023-01-23T21:37:45.233Z,101515.72
2023-01-23T21:40:47.853Z,101517.53
2023-01-23T21:43:51.093Z,101518.75
2023-01-23T21:46:53.727Z,101519.75
2023-01-23T21:49:56.930Z,101525.94
2023-01-23T21:52:59.487Z,101517.34
2023-01-23T21:56:03.568Z,101525.94
2023-01-23T21:59:06.160Z,101517.34
2023-01-23T22:02:10.160Z,101526.03
2023-01-23T22:05:13.129Z,101526.16
2023-01-23T22:08:15.982Z,101523.97
2023-01-23T22:11:19.075Z,101518.75
2023-01-23T22:14:21.952Z,101528.44
2023-01-23T22:17:24.840Z,101529.16
2023-01-23T22:20:27.680Z,101523.75
2023-01-23T22:23:31.771Z,101529.84
2023-01-23T22:26:34.730Z,101532.66
2023-01-23T22:29:39.698Z,101543.16
2023-01-23T22:32:42.729Z,101541.34
2023-01-23T22:35:46.259Z,101544.44
2023-01-23T22:38:55.775Z,101552.91
2023-01-23T22:41:58.718Z,101554.31
2023-01-23T22:45:01.960Z,101557.62
2023-01-23T22:48:05.189Z,101561.78
2023-01-23T22:51:15.379Z,101562.72
2023-01-23T22:54:18.241Z,101566.97
2023-01-23T22:57:21.120Z,101575.09
2023-01-23T23:00:24.063Z,101561.22
2023-01-23T23:03:27.696Z,101575.69
2023-01-23T23:06:30.701Z,101581.56
2023-01-23T23:09:33.917Z,101589.16
2023-01-23T23:12:37.055Z,101588.25
2023-01-23T23:15:39.951Z,101585.56
2023-01-23T23:18:42.789Z,101586.25
2023-01-23T23:21:45.628Z,101583.56
2023-01-23T23:24:49.234Z,101579.03
2023-01-23T23:27:52.161Z,101585.06
2023-01-23T23:30:55.139Z,101586.63
2023-01-23T23:33:58.190Z,101592.53
2023-01-23T23:37:01.169Z,101586.50
2023-01-23T23:40:05.345Z,101589.81
2023-01-23T23:43:08.310Z,101586.91
2023-01-23T23:46:12.655Z,101584.78
2023-01-23T23:49:15.528Z,101584.47
2023-01-23T23:52:18.801Z,101585.34
2023-01-23T23:55:21.731Z,101585.47
2023-01-23T23:58:26.366Z,101587.28
